createdAt,value
2022-08-03T00:01:13.904Z,38.12
2022-08-03T00:03:46.903Z,38.12
2022-08-03T00:06:19.876Z,38.14
2022-08-03T00:08:52.959Z,38.15
2022-08-03T00:11:25.916Z,38.32
2022-08-03T00:13:58.923Z,38.34
2022-08-03T00:16:31.947Z,38.22
2022-08-03T00:19:04.944Z,38.39
2022-08-03T00:21:37.970Z,38.32
2022-08-03T00:24:10.931Z,38.37
2022-08-03T00:26:43.989Z,38.43
2022-08-03T00:29:16.927Z,38.34
2022-08-03T00:31:52.411Z,38.38
2022-08-03T00:34:34.552Z,38.24
2022-08-03T00:36:55.969Z,38.21
2022-08-03T00:39:28.897Z,38.00
2022-08-03T00:42:01.963Z,38.11
2022-08-03T00:44:34.926Z,38.07
2022-08-03T00:47:07.991Z,37.94
2022-08-03T00:49:41.392Z,37.95
2022-08-03T00:52:13.961Z,37.71
2022-08-03T00:54:47.001Z,37.73
2022-08-03T00:57:19.954Z,37.64
2022-08-03T00:59:53.003Z,37.74
2022-08-03T01:02:25.978Z,37.59
2022-08-03T01:04:58.994Z,37.56
2022-08-03T01:07:31.961Z,37.51
2022-08-03T01:10:05.036Z,37.59
2022-08-03T01:12:37.968Z,37.43
2022-08-03T01:15:10.991Z,37.44
2022-08-03T01:17:44.079Z,37.38
2022-08-03T01:20:17.019Z,37.61
2022-08-03T01:22:50.118Z,37.62
2022-08-03T01:25:22.999Z,37.66
2022-08-03T01:27:56.080Z,37.77
2022-08-03T01:30:28.990Z,37.74
2022-08-03T01:33:03.054Z,37.73
2022-08-03T01:35:38.380Z,37.78
2022-08-03T01:38:08.079Z,37.86
2022-08-03T01:40:40.971Z,37.89
2022-08-03T01:43:14.408Z,37.92
2022-08-03T01:45:47.180Z,37.98
2022-08-03T01:48:21.146Z,37.87
2022-08-03T01:50:54.034Z,37.89
2022-08-03T01:53:27.096Z,37.85
2022-08-03T01:56:00.077Z,37.68
2022-08-03T01:58:33.040Z,37.66
2022-08-03T02:01:06.143Z,37.66
2022-08-03T02:03:39.042Z,37.67
2022-08-03T02:06:59.926Z,37.75
2022-08-03T02:08:45.005Z,37.75
2022-08-03T02:11:18.097Z,37.38
2022-08-03T02:13:51.087Z,37.75
2022-08-03T02:16:24.128Z,37.55
2022-08-03T02:18:57.092Z,37.61
2022-08-03T02:21:56.873Z,37.61
2022-08-03T02:24:03.138Z,37.63
2022-08-03T02:26:36.075Z,37.48
2022-08-03T02:29:09.020Z,37.60
2022-08-03T02:31:42.137Z,37.63
2022-08-03T02:34:15.118Z,37.64
2022-08-03T02:36:48.126Z,37.57
2022-08-03T02:39:21.093Z,37.56
2022-08-03T02:41:54.158Z,37.67
2022-08-03T02:44:27.116Z,37.74
2022-08-03T02:47:00.177Z,37.75
2022-08-03T02:49:51.075Z,37.72
2022-08-03T02:52:06.121Z,37.72
2022-08-03T02:54:39.193Z,37.67
2022-08-03T02:57:12.142Z,37.64
2022-08-03T02:59:45.132Z,37.60
2022-08-03T03:02:18.492Z,37.57
2022-08-03T03:05:50.856Z,37.57
2022-08-03T03:07:24.146Z,37.56
2022-08-03T03:09:57.214Z,37.54
2022-08-03T03:12:30.170Z,37.50
2022-08-03T03:15:03.177Z,37.52
2022-08-03T03:17:36.162Z,37.51
2022-08-03T03:20:09.204Z,37.48
2022-08-03T03:22:45.212Z,37.52
2022-08-03T03:25:15.156Z,37.44
2022-08-03T03:27:49.568Z,37.36
2022-08-03T03:30:21.167Z,37.31
2022-08-03T03:32:54.204Z,37.41
2022-08-03T03:35:27.232Z,37.41
2022-08-03T03:38:00.202Z,37.32
2022-08-03T03:40:33.221Z,37.44
2022-08-03T03:43:06.247Z,37.46
2022-08-03T03:45:39.219Z,37.45
2022-08-03T03:48:12.185Z,37.57
2022-08-03T03:50:45.187Z,37.41
2022-08-03T03:53:18.255Z,37.41
2022-08-03T03:55:59.627Z,37.49
2022-08-03T03:58:24.874Z,37.59
2022-08-03T04:00:57.291Z,37.57
2022-08-03T04:03:30.221Z,37.80
2022-08-03T04:06:03.205Z,37.55
2022-08-03T04:08:36.208Z,37.54
2022-08-03T04:11:09.234Z,37.59
2022-08-03T04:13:42.257Z,37.53
2022-08-03T04:16:15.233Z,37.56
2022-08-03T04:18:48.280Z,37.62
2022-08-03T04:21:21.253Z,37.54
2022-08-03T04:23:54.289Z,37.47
2022-08-03T04:26:27.290Z,37.52
2022-08-03T04:29:00.275Z,37.48
2022-08-03T04:31:33.320Z,37.45
2022-08-03T04:34:06.264Z,37.63
2022-08-03T04:36:39.291Z,37.73
2022-08-03T04:39:12.265Z,37.71
2022-08-03T04:42:04.732Z,37.72
2022-08-03T04:44:18.226Z,37.79
2022-08-03T04:46:52.523Z,37.83
2022-08-03T04:49:24.358Z,37.98
2022-08-03T04:51:57.328Z,38.20
2022-08-03T04:54:30.270Z,38.22
2022-08-03T04:57:03.287Z,38.28
2022-08-03T04:59:36.292Z,38.31
2022-08-03T05:02:09.383Z,38.45
2022-08-03T05:04:42.330Z,38.46
2022-08-03T05:07:15.325Z,38.57
2022-08-03T05:09:50.594Z,38.74
2022-08-03T05:12:21.307Z,38.68
2022-08-03T05:14:54.388Z,38.69
2022-08-03T05:17:27.324Z,38.70
2022-08-03T05:20:00.375Z,38.69
2022-08-03T05:22:33.337Z,38.71
2022-08-03T05:25:06.335Z,38.78
2022-08-03T05:27:39.384Z,38.85
2022-08-03T05:30:31.049Z,38.96
2022-08-03T05:32:45.377Z,39.11
2022-08-03T05:35:57.882Z,39.53
2022-08-03T05:37:54.790Z,39.68
2022-08-03T05:40:24.410Z,40.13
2022-08-03T05:42:57.351Z,40.77
2022-08-03T05:45:30.428Z,41.16
2022-08-03T05:48:03.153Z,41.19
2022-08-03T05:50:38.766Z,40.98
2022-08-03T05:53:09.167Z,41.59
2022-08-03T05:55:42.171Z,41.55
2022-08-03T05:58:15.187Z,41.31
2022-08-03T06:00:48.177Z,41.81
2022-08-03T06:03:21.220Z,41.64
2022-08-03T06:06:00.388Z,41.69
2022-08-03T06:08:27.123Z,41.85
2022-08-03T06:11:00.244Z,41.32
2022-08-03T06:13:33.148Z,41.25
2022-08-03T06:16:06.079Z,41.82
2022-08-03T06:18:39.131Z,42.00
2022-08-03T06:21:15.234Z,42.17
2022-08-03T06:23:52.866Z,42.17
2022-08-03T06:26:18.417Z,41.87
2022-08-03T06:28:53.964Z,41.81
2022-08-03T06:31:24.414Z,41.53
2022-08-03T06:34:32.473Z,41.64
2022-08-03T06:36:30.593Z,41.51
2022-08-03T06:39:04.459Z,41.60
2022-08-03T06:41:38.297Z,41.51
2022-08-03T06:44:10.495Z,41.56
2022-08-03T06:46:43.477Z,41.46
2022-08-03T06:49:16.492Z,41.39
2022-08-03T06:52:06.193Z,41.60
2022-08-03T06:54:22.479Z,41.78
2022-08-03T06:56:55.466Z,41.76
2022-08-03T07:00:09.553Z,41.70
2022-08-03T07:02:01.454Z,41.75
2022-08-03T07:04:34.461Z,41.70
2022-08-03T07:07:07.524Z,41.78
2022-08-03T07:09:40.524Z,41.74
2022-08-03T07:12:13.458Z,41.91
2022-08-03T07:14:46.544Z,41.77
2022-08-03T07:17:19.537Z,41.87
2022-08-03T07:19:52.544Z,41.84
2022-08-03T07:22:25.530Z,41.93
2022-08-03T07:24:58.327Z,41.75
2022-08-03T07:27:31.483Z,41.77
2022-08-03T07:30:04.506Z,41.92
2022-08-03T07:32:37.476Z,41.81
2022-08-03T07:35:22.725Z,41.87
2022-08-03T07:37:54.201Z,42.01
2022-08-03T07:40:16.589Z,41.81
2022-08-03T07:42:53.214Z,41.79
2022-08-03T07:45:22.267Z,41.92
2022-08-03T07:47:55.544Z,42.07
2022-08-03T07:50:28.553Z,42.16
2022-08-03T07:53:01.648Z,42.22
2022-08-03T07:55:34.661Z,42.25
2022-08-03T07:58:07.642Z,42.22
2022-08-03T08:00:40.278Z,42.29
2022-08-03T08:03:13.751Z,42.35
2022-08-03T08:05:47.627Z,42.47
2022-08-03T08:08:20.547Z,42.41
2022-08-03T08:10:58.306Z,42.52
2022-08-03T08:13:26.613Z,42.52
2022-08-03T08:15:59.589Z,42.55
2022-08-03T08:18:32.609Z,42.59
2022-08-03T08:21:05.604Z,42.57
2022-08-03T08:23:43.654Z,42.73
2022-08-03T08:26:11.610Z,42.69
2022-08-03T08:28:44.628Z,42.66
2022-08-03T08:31:17.642Z,42.71
2022-08-03T08:34:05.913Z,42.77
2022-08-03T08:36:23.328Z,42.71
2022-08-03T08:38:56.440Z,42.86
2022-08-03T08:41:32.057Z,43.08
2022-08-03T08:44:02.458Z,42.62
2022-08-03T08:46:35.653Z,42.63
2022-08-03T08:49:08.738Z,42.64
2022-08-03T08:51:58.069Z,42.93
2022-08-03T08:54:14.656Z,43.31
2022-08-03T08:56:47.650Z,43.30
2022-08-03T08:59:20.611Z,43.76
2022-08-03T09:01:53.614Z,43.77
2022-08-03T09:04:26.647Z,43.60
2022-08-03T09:07:19.337Z,43.70
2022-08-03T09:10:05.968Z,43.67
2022-08-03T09:12:37.172Z,43.86
2022-08-03T09:14:49.772Z,43.73
2022-08-03T09:17:17.285Z,43.68
2022-08-03T09:20:03.087Z,43.62
2022-08-03T09:22:17.648Z,43.64
2022-08-03T09:25:08.715Z,43.64
2022-08-03T09:27:23.686Z,43.61
2022-08-03T09:29:56.709Z,43.67
2022-08-03T09:32:29.680Z,43.58
2022-08-03T09:35:02.732Z,43.62
2022-08-03T09:38:13.454Z,43.54
2022-08-03T09:40:08.746Z,43.57
2022-08-03T09:42:41.384Z,43.56
2022-08-03T09:45:14.746Z,43.55
2022-08-03T09:47:47.749Z,43.51
2022-08-03T09:50:20.527Z,43.62
2022-08-03T09:52:53.727Z,43.68
2022-08-03T09:56:33.399Z,43.61
2022-08-03T09:57:59.784Z,43.63
2022-08-03T10:00:32.757Z,43.62
2022-08-03T10:03:05.735Z,43.64
2022-08-03T10:05:38.795Z,43.66
2022-08-03T10:08:11.791Z,43.73
2022-08-03T10:10:44.703Z,43.84
2022-08-03T10:13:17.798Z,43.90
2022-08-03T10:16:23.069Z,43.80
2022-08-03T10:18:23.750Z,43.96
2022-08-03T10:20:56.747Z,43.88
2022-08-03T10:23:33.495Z,43.81
2022-08-03T10:26:02.801Z,43.82
2022-08-03T10:28:35.747Z,43.98
2022-08-03T10:31:08.787Z,44.06
2022-08-03T10:33:49.906Z,43.91
2022-08-03T10:36:14.761Z,44.09
2022-08-03T10:38:47.770Z,44.22
2022-08-03T10:41:20.803Z,44.21
2022-08-03T10:43:53.789Z,44.30
2022-08-03T10:46:26.779Z,44.36
2022-08-03T10:48:59.859Z,44.27
2022-08-03T10:51:32.782Z,44.27
2022-08-03T10:54:05.786Z,44.26
2022-08-03T10:56:49.696Z,44.21
2022-08-03T10:59:11.862Z,44.22
2022-08-03T11:02:00.182Z,44.26
2022-08-03T11:04:17.806Z,44.40
2022-08-03T11:06:50.834Z,44.39
2022-08-03T11:09:23.827Z,44.40
2022-08-03T11:11:56.820Z,44.46
2022-08-03T11:14:29.826Z,44.47
2022-08-03T11:17:02.849Z,44.43
2022-08-03T11:19:35.856Z,44.47
2022-08-03T11:22:08.828Z,44.46
2022-08-03T11:24:41.859Z,44.53
2022-08-03T11:27:14.762Z,44.40
2022-08-03T11:29:47.888Z,44.34
2022-08-03T11:32:20.865Z,44.15
2022-08-03T11:34:53.845Z,43.98
2022-08-03T11:37:31.527Z,43.91
2022-08-03T11:39:59.858Z,43.65
2022-08-03T11:42:32.872Z,43.69
2022-08-03T11:45:06.190Z,43.80
2022-08-03T11:47:50.997Z,43.78
2022-08-03T11:50:11.889Z,43.77
2022-08-03T11:52:44.864Z,43.86
2022-08-03T11:55:17.974Z,43.84
2022-08-03T11:59:12.828Z,43.84
2022-08-03T12:00:23.894Z,43.87
2022-08-03T12:02:56.959Z,43.86
2022-08-03T12:05:29.915Z,43.88
2022-08-03T12:08:06.315Z,43.90
2022-08-03T12:10:35.605Z,43.95
2022-08-03T12:14:45.121Z,43.97
2022-08-03T12:15:41.929Z,43.92
2022-08-03T12:18:14.913Z,43.88
2022-08-03T12:20:47.968Z,43.87
2022-08-03T12:23:20.937Z,43.92
2022-08-03T12:25:53.922Z,43.93
2022-08-03T12:28:36.295Z,43.94
2022-08-03T12:30:59.976Z,43.92
2022-08-03T12:33:32.941Z,43.96
2022-08-03T12:36:05.902Z,43.93
2022-08-03T12:38:39.557Z,43.93
2022-08-03T12:41:12.048Z,43.98
2022-08-03T12:43:44.927Z,44.01
2022-08-03T12:46:17.945Z,44.00
2022-08-03T12:48:50.960Z,43.99
2022-08-03T12:51:23.995Z,43.96
2022-08-03T12:53:56.930Z,44.05
2022-08-03T12:56:30.015Z,44.08
2022-08-03T12:59:03.015Z,44.08
2022-08-03T13:01:36.053Z,44.10
2022-08-03T13:04:09.142Z,44.09
2022-08-03T13:06:42.789Z,44.10
2022-08-03T13:09:15.684Z,44.06
2022-08-03T13:11:56.007Z,44.17
2022-08-03T13:14:23.676Z,44.09
2022-08-03T13:16:54.761Z,44.16
2022-08-03T13:19:27.975Z,44.40
2022-08-03T13:22:03.985Z,44.43
2022-08-03T13:24:33.937Z,44.55
2022-08-03T13:28:01.326Z,44.70
2022-08-03T13:29:39.797Z,44.70
2022-08-03T13:32:13.006Z,44.66
2022-08-03T13:34:45.982Z,44.75
2022-08-03T13:37:19.080Z,44.64
2022-08-03T13:39:59.692Z,44.79
2022-08-03T13:42:25.302Z,44.88
2022-08-03T13:44:59.101Z,44.89
2022-08-03T13:47:32.107Z,44.82
2022-08-03T13:50:05.097Z,44.85
2022-08-03T13:52:38.041Z,44.86
2022-08-03T13:55:11.118Z,45.11
2022-08-03T13:58:03.562Z,45.23
2022-08-03T14:00:28.014Z,45.07
2022-08-03T14:02:50.071Z,45.16
2022-08-03T14:05:23.038Z,45.25
2022-08-03T14:07:56.853Z,45.23
2022-08-03T14:10:29.038Z,45.33
2022-08-03T14:13:02.057Z,45.55
2022-08-03T14:15:37.606Z,45.42
2022-08-03T14:18:15.727Z,45.61
2022-08-03T14:20:47.763Z,45.60
2022-08-03T14:23:14.123Z,45.67
2022-08-03T14:25:51.555Z,45.46
2022-08-03T14:28:20.118Z,45.33
2022-08-03T14:30:53.091Z,45.31
2022-08-03T14:33:26.173Z,45.27
2022-08-03T14:35:59.123Z,45.42
2022-08-03T14:38:32.154Z,45.33
2022-08-03T14:41:05.104Z,45.59
2022-08-03T14:43:38.120Z,45.35
2022-08-03T14:46:11.045Z,45.44
2022-08-03T14:50:30.827Z,45.50
2022-08-03T14:51:16.920Z,45.54
2022-08-03T14:53:49.895Z,45.41
2022-08-03T14:56:22.984Z,45.41
2022-08-03T14:58:55.934Z,45.45
2022-08-03T15:02:04.701Z,45.39
2022-08-03T15:04:01.970Z,45.32
2022-08-03T15:06:34.882Z,45.16
2022-08-03T15:09:21.133Z,45.13
2022-08-03T15:11:41.149Z,45.14
2022-08-03T15:14:14.676Z,45.08
2022-08-03T15:16:47.155Z,45.10
2022-08-03T15:20:03.797Z,45.16
2022-08-03T15:21:53.205Z,45.12
2022-08-03T15:24:25.979Z,45.24
2022-08-03T15:26:59.199Z,45.47
2022-08-03T15:30:08.114Z,45.49
2022-08-03T15:32:09.201Z,45.47
2022-08-03T15:34:38.198Z,45.42
2022-08-03T15:37:15.166Z,45.38
2022-08-03T15:39:58.122Z,45.32
2022-08-03T15:42:17.185Z,45.25
2022-08-03T15:44:50.242Z,45.31
2022-08-03T15:47:23.258Z,45.21
2022-08-03T15:49:56.407Z,45.27
2022-08-03T15:52:29.200Z,45.24
2022-08-03T15:55:02.234Z,45.26
2022-08-03T15:59:04.906Z,45.22
2022-08-03T16:00:08.240Z,45.27
2022-08-03T16:02:41.203Z,45.28
2022-08-03T16:05:14.252Z,45.33
2022-08-03T16:08:02.630Z,45.30
2022-08-03T16:10:20.311Z,45.35
2022-08-03T16:12:53.240Z,45.36
2022-08-03T16:15:26.233Z,45.35
2022-08-03T16:17:59.219Z,45.46
2022-08-03T16:20:35.101Z,45.52
2022-08-03T16:23:10.656Z,45.39
2022-08-03T16:25:38.272Z,45.46
2022-08-03T16:28:14.811Z,45.54
2022-08-03T16:30:44.129Z,45.67
2022-08-03T16:33:17.795Z,45.74
2022-08-03T16:35:50.058Z,45.68
2022-08-03T16:38:23.288Z,45.64
2022-08-03T16:40:56.097Z,45.58
2022-08-03T16:43:29.042Z,45.57
2022-08-03T16:46:01.992Z,45.48
2022-08-03T16:48:34.988Z,45.52
2022-08-03T16:51:07.982Z,45.44
2022-08-03T16:54:05.357Z,45.39
2022-08-03T16:56:14.355Z,45.41
2022-08-03T16:58:47.319Z,45.52
2022-08-03T17:01:21.457Z,45.50
2022-08-03T17:04:02.070Z,45.40
2022-08-03T17:06:26.368Z,45.46
2022-08-03T17:08:59.302Z,45.30
2022-08-03T17:11:33.115Z,45.14
2022-08-03T17:14:09.602Z,44.98
2022-08-03T17:16:38.550Z,44.89
2022-08-03T17:19:11.336Z,44.81
2022-08-03T17:21:44.310Z,44.73
2022-08-03T17:24:18.735Z,44.65
2022-08-03T17:26:50.601Z,44.53
2022-08-03T17:29:23.335Z,44.45
2022-08-03T17:31:56.335Z,44.46
2022-08-03T17:34:29.405Z,45.00
2022-08-03T17:37:04.166Z,45.10
2022-08-03T17:39:57.494Z,45.48
2022-08-03T17:42:30.127Z,45.66
2022-08-03T17:44:46.310Z,45.70
2022-08-03T17:47:14.389Z,46.13
2022-08-03T17:49:47.383Z,46.00
2022-08-03T17:52:20.582Z,46.20
2022-08-03T17:55:56.582Z,45.94
2022-08-03T17:57:27.322Z,45.94
2022-08-03T17:59:59.380Z,45.34
2022-08-03T18:02:33.093Z,45.68
2022-08-03T18:05:15.933Z,45.69
2022-08-03T18:07:41.027Z,45.65
2022-08-03T18:10:15.425Z,45.71
2022-08-03T18:12:44.375Z,45.71
2022-08-03T18:15:21.406Z,45.68
2022-08-03T18:17:55.428Z,45.56
2022-08-03T18:20:34.113Z,45.60
2022-08-03T18:22:57.545Z,45.61
2022-08-03T18:25:45.263Z,45.53
2022-08-03T18:28:03.472Z,45.61
2022-08-03T18:30:53.336Z,45.63
2022-08-03T18:34:19.530Z,45.61
2022-08-03T18:35:52.868Z,45.52
2022-08-03T18:38:16.632Z,45.59
2022-08-03T18:40:49.032Z,45.59
2022-08-03T18:43:21.430Z,45.60
2022-08-03T18:45:56.191Z,45.78
2022-08-03T18:48:27.473Z,45.75
2022-08-03T18:51:00.494Z,45.80
2022-08-03T18:54:02.632Z,45.89
2022-08-03T18:56:06.229Z,45.94
2022-08-03T18:58:39.271Z,46.11
2022-08-03T19:01:57.980Z,46.12
2022-08-03T19:03:45.475Z,46.06
2022-08-03T19:06:20.078Z,46.07
2022-08-03T19:08:51.499Z,46.08
2022-08-03T19:11:27.836Z,46.06
2022-08-03T19:13:57.600Z,46.00
2022-08-03T19:16:30.494Z,45.96
2022-08-03T19:19:03.633Z,45.95
2022-08-03T19:21:36.588Z,45.79
2022-08-03T19:24:10.391Z,45.69
2022-08-03T19:26:42.570Z,45.92
2022-08-03T19:29:15.573Z,45.84
2022-08-03T19:31:59.482Z,45.68
2022-08-03T19:34:21.527Z,45.75
2022-08-03T19:36:54.563Z,45.77
2022-08-03T19:39:27.473Z,45.60
2022-08-03T19:42:06.303Z,45.61
2022-08-03T19:44:33.744Z,45.51
2022-08-03T19:47:06.527Z,45.16
2022-08-03T19:50:05.192Z,45.23
2022-08-03T19:52:12.534Z,45.25
2022-08-03T19:54:54.186Z,45.18
2022-08-03T19:57:20.878Z,44.90
2022-08-03T19:59:53.559Z,45.28
2022-08-03T20:02:28.051Z,44.77
2022-08-03T20:04:59.673Z,44.37
2022-08-03T20:07:32.569Z,44.30
2022-08-03T20:10:05.550Z,44.42
2022-08-03T20:12:39.374Z,43.56
2022-08-03T20:15:11.608Z,43.86
2022-08-03T20:17:56.642Z,43.70
2022-08-03T20:20:17.362Z,44.84
2022-08-03T20:22:50.421Z,44.68
2022-08-03T20:25:23.391Z,44.43
2022-08-03T20:28:07.024Z,44.99
2022-08-03T20:30:29.287Z,45.23
2022-08-03T20:33:02.618Z,45.24
2022-08-03T20:35:35.616Z,44.87
2022-08-03T20:38:08.622Z,44.95
2022-08-03T20:40:41.464Z,44.94
2022-08-03T20:43:14.464Z,44.59
2022-08-03T20:45:59.300Z,44.69
2022-08-03T20:48:22.205Z,44.72
2022-08-03T20:50:53.650Z,44.68
2022-08-03T20:53:59.759Z,44.43
2022-08-03T20:56:02.082Z,44.58
2022-08-03T20:58:32.691Z,44.90
2022-08-03T21:01:05.634Z,44.32
2022-08-03T21:03:40.976Z,43.89
2022-08-03T21:06:11.717Z,44.14
2022-08-03T21:08:46.927Z,43.95
2022-08-03T21:11:18.786Z,43.78
2022-08-03T21:13:52.816Z,44.01
2022-08-03T21:16:25.760Z,44.45
2022-08-03T21:18:58.746Z,44.27
2022-08-03T21:21:31.435Z,44.65
2022-08-03T21:24:04.766Z,44.64
2022-08-03T21:26:37.737Z,44.57
2022-08-03T21:29:10.779Z,44.48
2022-08-03T21:31:43.780Z,44.49
2022-08-03T21:34:16.889Z,44.44
2022-08-03T21:36:50.825Z,43.42
2022-08-03T21:39:24.872Z,43.79
2022-08-03T21:41:58.773Z,44.07
2022-08-03T21:44:31.905Z,44.19
2022-08-03T21:47:05.821Z,44.50
2022-08-03T21:50:07.140Z,44.11
2022-08-03T21:52:11.801Z,43.86
2022-08-03T21:54:44.833Z,43.90
2022-08-03T21:57:17.750Z,43.80
2022-08-03T21:59:50.874Z,43.76
2022-08-03T22:02:24.730Z,43.58
2022-08-03T22:04:57.639Z,43.62
2022-08-03T22:07:30.564Z,43.50
2022-08-03T22:10:03.607Z,43.35
2022-08-03T22:12:36.594Z,43.28
2022-08-03T22:15:09.485Z,43.21
2022-08-03T22:17:55.595Z,43.21
2022-08-03T22:20:15.724Z,43.11
2022-08-03T22:22:55.869Z,43.03
2022-08-03T22:25:21.764Z,42.95
2022-08-03T22:27:54.817Z,42.78
2022-08-03T22:30:27.802Z,42.84
2022-08-03T22:33:00.822Z,42.69
2022-08-03T22:35:47.553Z,42.69
2022-08-03T22:38:06.984Z,42.65
2022-08-03T22:40:40.827Z,42.76
2022-08-03T22:43:13.819Z,42.90
2022-08-03T22:46:10.029Z,42.67
2022-08-03T22:48:19.825Z,42.75
2022-08-03T22:50:52.819Z,42.90
2022-08-03T22:53:25.825Z,42.67
2022-08-03T22:56:02.706Z,42.33
2022-08-03T22:58:35.872Z,42.83
2022-08-03T23:01:08.865Z,42.57
2022-08-03T23:03:59.300Z,42.47
2022-08-03T23:06:14.816Z,42.38
2022-08-03T23:08:47.830Z,42.21
2022-08-03T23:11:20.834Z,42.82
2022-08-03T23:13:53.845Z,42.73
2022-08-03T23:16:28.500Z,42.25
2022-08-03T23:18:59.923Z,42.47
2022-08-03T23:22:00.498Z,42.59
2022-08-03T23:24:05.931Z,42.38
2022-08-03T23:26:38.865Z,42.26
2022-08-03T23:29:11.824Z,42.55
2022-08-03T23:31:44.852Z,42.45
2022-08-03T23:34:17.917Z,42.14
2022-08-03T23:36:50.924Z,42.29
2022-08-03T23:39:24.017Z,42.22
2022-08-03T23:41:56.865Z,42.50
2022-08-03T23:44:29.907Z,42.50
2022-08-03T23:47:02.897Z,42.26
2022-08-03T23:49:35.954Z,42.11
2022-08-03T23:52:08.896Z,42.09
2022-08-03T23:54:41.953Z,42.33
2022-08-03T23:57:14.959Z,42.76
2022-08-03T23:59:47.932Z,42.69
